OOEHY CYYQ-CYEG
Flight info
| Callsign | OOEHY |
|---|---|
| Flight time | N/A |
| Altitude | 6000 |
| Route | YYL J540 ROMDA DCT RESAX RESAX1 |
| Aircraft | C208/L-SDFGR/C |
Departure
| Time | 2026-04-21 22:13 |
|---|---|
| Airport | Churchill Airport (CYYQ) |
Arrival
| Time | N/A |
|---|---|
| Airport | Edmonton International Airport (CYEG) |
| Time | Latitude | Longitude | Altitude | Speed | Heading |
|---|---|---|---|---|---|
| 2026-04-21 22:08 | 58.74730 | -94.07245 | 79 ft | 0 kts | 253° |
| 2026-04-21 22:09 | 58.74716 | -94.07276 | 79 ft | 9 kts | 222° |
| 2026-04-21 22:10 | 58.74643 | -94.07362 | 77 ft | 13 kts | 207° |
| 2026-04-21 22:10 | 58.74559 | -94.07469 | 75 ft | 14 kts | 235° |
| 2026-04-21 22:10 | 58.74513 | -94.07637 | 74 ft | 13 kts | 243° |
| 2026-04-21 22:10 | 58.74450 | -94.07652 | 73 ft | 12 kts | 150° |
| 2026-04-21 22:11 | 58.74366 | -94.07571 | 71 ft | 15 kts | 152° |
| 2026-04-21 22:11 | 58.74262 | -94.07468 | 69 ft | 19 kts | 152° |
| 2026-04-21 22:11 | 58.74123 | -94.07330 | 67 ft | 24 kts | 148° |
| 2026-04-21 22:11 | 58.74039 | -94.07224 | 67 ft | 5 kts | 107° |
| 2026-04-21 22:12 | 58.74009 | -94.07214 | 67 ft | 5 kts | 286° |
| 2026-04-21 22:12 | 58.74071 | -94.07277 | 67 ft | 36 kts | 333° |
| 2026-04-21 22:12 | 58.74462 | -94.07719 | 324 ft | 79 kts | 322° |
| 2026-04-21 22:12 | 58.74703 | -94.08837 | 415 ft | 93 kts | 279° |
| 2026-04-21 22:13 | 58.74432 | -94.09839 | 409 ft | 106 kts | 214° |
| 2026-04-21 22:13 | 58.73885 | -94.10447 | 1200 ft | 58 kts | 168° |
| 2026-04-21 22:13 | 58.73319 | -94.09689 | 1054 ft | 130 kts | 129° |
| 2026-04-21 22:13 | 58.72638 | -94.08377 | 1080 ft | 143 kts | 131° |
| 2026-04-21 22:14 | 58.71929 | -94.07755 | 1265 ft | 93 kts | 182° |
| 2026-04-21 22:14 | 58.71247 | -94.08157 | 1605 ft | 102 kts | 218° |
| 2026-04-21 22:14 | 58.70849 | -94.09149 | 2080 ft | 93 kts | 257° |
| 2026-04-21 22:14 | 58.70854 | -94.10275 | 2524 ft | 83 kts | 298° |
| 2026-04-21 22:15 | 58.71224 | -94.11010 | 2960 ft | 76 kts | 339° |
| 2026-04-21 22:15 | 58.71729 | -94.11182 | 3389 ft | 75 kts | 353° |
| 2026-04-21 22:15 | 58.72245 | -94.11204 | 3797 ft | 76 kts | 356° |
| 2026-04-21 22:15 | 58.72767 | -94.11195 | 4196 ft | 77 kts | 357° |
| 2026-04-21 22:16 | 58.73298 | -94.11186 | 4588 ft | 77 kts | 357° |
| 2026-04-21 22:16 | 58.73832 | -94.11177 | 4973 ft | 78 kts | 356° |
| 2026-04-21 22:16 | 58.74374 | -94.11169 | 5351 ft | 79 kts | 357° |
| 2026-04-21 22:16 | 58.74864 | -94.11514 | 5714 ft | 83 kts | 314° |
| 2026-04-21 22:17 | 58.75042 | -94.12618 | 6063 ft | 94 kts | 272° |
| 2026-04-21 22:17 | 58.74912 | -94.13865 | 6414 ft | 98 kts | 259° |
| 2026-04-21 22:17 | 58.74694 | -94.15141 | 6742 ft | 104 kts | 255° |
| 2026-04-21 22:17 | 58.74440 | -94.16430 | 7119 ft | 103 kts | 253° |
| 2026-04-21 22:18 | 58.74167 | -94.17704 | 7479 ft | 103 kts | 252° |
| 2026-04-21 22:18 | 58.73888 | -94.18962 | 7827 ft | 104 kts | 252° |
| 2026-04-21 22:18 | 58.73598 | -94.20243 | 8173 ft | 104 kts | 251° |
| 2026-04-21 22:18 | 58.73309 | -94.21503 | 8508 ft | 105 kts | 251° |
| 2026-04-21 22:19 | 58.73012 | -94.22791 | 8845 ft | 105 kts | 251° |
| 2026-04-21 22:19 | 58.72716 | -94.24068 | 9173 ft | 106 kts | 251° |
| 2026-04-21 22:19 | 58.72415 | -94.25368 | 9501 ft | 107 kts | 251° |
| 2026-04-21 22:19 | 58.72113 | -94.26666 | 9825 ft | 107 kts | 251° |
| 2026-04-21 22:20 | 58.71812 | -94.27956 | 10142 ft | 108 kts | 251° |
| 2026-04-21 22:20 | 58.71691 | -94.28474 | 10267 ft | 108 kts | 251° |
| 2026-04-21 22:20 | 58.71383 | -94.29796 | 10584 ft | 108 kts | 251° |
| 2026-04-21 22:20 | 58.71075 | -94.31118 | 10895 ft | 109 kts | 251° |
| 2026-04-21 22:21 | 58.70766 | -94.32439 | 11200 ft | 109 kts | 251° |
| 2026-04-21 22:21 | 58.70458 | -94.33759 | 11500 ft | 110 kts | 251° |
| 2026-04-21 22:21 | 58.70145 | -94.35100 | 11798 ft | 110 kts | 251° |
| 2026-04-21 22:21 | 58.69829 | -94.36451 | 12094 ft | 111 kts | 251° |
| 2026-04-21 22:22 | 58.69514 | -94.37794 | 12384 ft | 111 kts | 251° |
| 2026-04-21 22:22 | 58.69195 | -94.39157 | 12673 ft | 112 kts | 251° |
| 2026-04-21 22:22 | 58.68878 | -94.40510 | 12955 ft | 112 kts | 251° |
| 2026-04-21 22:22 | 58.68556 | -94.41885 | 13237 ft | 113 kts | 251° |
| 2026-04-21 22:23 | 58.68236 | -94.43244 | 13512 ft | 113 kts | 251° |
| 2026-04-21 22:23 | 58.67910 | -94.44634 | 13786 ft | 114 kts | 251° |
| 2026-04-21 22:23 | 58.67587 | -94.46005 | 14051 ft | 114 kts | 251° |
| 2026-04-21 22:23 | 58.67257 | -94.47408 | 14316 ft | 115 kts | 251° |
| 2026-04-21 22:24 | 58.66931 | -94.48796 | 14573 ft | 115 kts | 251° |
| 2026-04-21 22:24 | 58.66597 | -94.50211 | 14829 ft | 116 kts | 251° |
| 2026-04-21 22:24 | 58.66268 | -94.51606 | 15074 ft | 116 kts | 251° |
| 2026-04-21 22:24 | 58.65935 | -94.53021 | 15319 ft | 117 kts | 251° |
| 2026-04-21 22:25 | 58.65598 | -94.54448 | 15560 ft | 117 kts | 251° |
| 2026-04-21 22:25 | 58.65264 | -94.55868 | 15795 ft | 118 kts | 251° |
| 2026-04-21 22:25 | 58.64927 | -94.57288 | 16026 ft | 118 kts | 251° |
| 2026-04-21 22:25 | 58.64587 | -94.58725 | 16256 ft | 119 kts | 251° |
| 2026-04-21 22:26 | 58.64244 | -94.60175 | 16485 ft | 119 kts | 251° |
| 2026-04-21 22:26 | 58.63904 | -94.61610 | 16705 ft | 119 kts | 251° |
| 2026-04-21 22:26 | 58.63559 | -94.63070 | 16926 ft | 120 kts | 251° |
| 2026-04-21 22:26 | 58.63217 | -94.64513 | 17139 ft | 120 kts | 251° |
| 2026-04-21 22:27 | 58.62868 | -94.65981 | 17349 ft | 121 kts | 250° |
| 2026-04-21 22:27 | 58.62523 | -94.67438 | 17555 ft | 121 kts | 250° |
| 2026-04-21 22:27 | 58.62171 | -94.68917 | 17760 ft | 122 kts | 250° |
| 2026-04-21 22:27 | 58.61823 | -94.70381 | 17958 ft | 122 kts | 250° |
| 2026-04-21 22:28 | 58.61468 | -94.71870 | 18155 ft | 122 kts | 250° |
| 2026-04-21 22:28 | 58.61117 | -94.73343 | 18347 ft | 123 kts | 250° |
| 2026-04-21 22:28 | 58.60760 | -94.74841 | 18538 ft | 123 kts | 250° |
| 2026-04-21 22:28 | 58.60403 | -94.76340 | 18727 ft | 124 kts | 250° |
| 2026-04-21 22:29 | 58.60047 | -94.77831 | 18912 ft | 124 kts | 250° |
| 2026-04-21 22:29 | 58.59686 | -94.79340 | 19095 ft | 124 kts | 250° |
| 2026-04-21 22:29 | 58.59330 | -94.80833 | 19273 ft | 125 kts | 250° |
| 2026-04-21 22:29 | 58.58965 | -94.82356 | 19451 ft | 125 kts | 250° |
| 2026-04-21 22:30 | 58.58605 | -94.83863 | 19624 ft | 125 kts | 250° |
| 2026-04-21 22:30 | 58.58238 | -94.85394 | 19795 ft | 126 kts | 250° |
| 2026-04-21 22:30 | 58.57872 | -94.86920 | 19958 ft | 127 kts | 250° |
| 2026-04-21 22:30 | 58.57497 | -94.88493 | 20007 ft | 137 kts | 250° |
| 2026-04-21 22:31 | 58.57082 | -94.90239 | 20009 ft | 150 kts | 250° |
| 2026-04-21 22:31 | 58.56631 | -94.92127 | 20006 ft | 161 kts | 249° |
| 2026-04-21 22:31 | 58.56158 | -94.94096 | 20003 ft | 169 kts | 249° |
| 2026-04-21 22:31 | 58.55657 | -94.96178 | 20001 ft | 175 kts | 249° |
| 2026-04-21 22:32 | 58.55140 | -94.98321 | 19999 ft | 179 kts | 249° |
| 2026-04-21 22:32 | 58.54613 | -95.00506 | 19998 ft | 182 kts | 249° |
| 2026-04-21 22:32 | 58.54086 | -95.02691 | 19997 ft | 184 kts | 249° |
| 2026-04-21 22:32 | 58.53546 | -95.04925 | 19996 ft | 185 kts | 249° |
| 2026-04-21 22:33 | 58.53003 | -95.07166 | 19995 ft | 186 kts | 249° |
| 2026-04-21 22:33 | 58.52465 | -95.09391 | 19994 ft | 186 kts | 249° |
| 2026-04-21 22:33 | 58.51917 | -95.11650 | 19993 ft | 187 kts | 249° |
| 2026-04-21 22:33 | 58.51375 | -95.13882 | 19992 ft | 187 kts | 249° |
| 2026-04-21 22:34 | 58.50826 | -95.16140 | 19992 ft | 187 kts | 249° |
| 2026-04-21 22:34 | 58.50277 | -95.18400 | 19991 ft | 187 kts | 249° |
| 2026-04-21 22:34 | 58.49731 | -95.20640 | 19990 ft | 187 kts | 249° |
| 2026-04-21 22:34 | 58.49181 | -95.22900 | 19990 ft | 187 kts | 249° |
| 2026-04-21 22:35 | 58.48627 | -95.25169 | 19989 ft | 188 kts | 249° |
| 2026-04-21 22:35 | 58.48081 | -95.27406 | 19988 ft | 188 kts | 249° |
| 2026-04-21 22:35 | 58.47528 | -95.29668 | 19987 ft | 188 kts | 249° |
| 2026-04-21 22:35 | 58.46979 | -95.31908 | 19986 ft | 188 kts | 249° |
| 2026-04-21 22:36 | 58.45874 | -95.36416 | 19983 ft | 188 kts | 249° |
| 2026-04-21 22:36 | 58.45318 | -95.38681 | 19982 ft | 188 kts | 249° |
| 2026-04-21 22:36 | 58.44764 | -95.40939 | 19981 ft | 188 kts | 249° |
| 2026-04-21 22:37 | 58.44214 | -95.43171 | 19980 ft | 188 kts | 249° |
| 2026-04-21 22:37 | 58.43660 | -95.45424 | 19979 ft | 188 kts | 249° |
| 2026-04-21 22:37 | 58.43102 | -95.47687 | 19977 ft | 188 kts | 249° |
| 2026-04-21 22:37 | 58.42551 | -95.49919 | 19976 ft | 188 kts | 249° |
| 2026-04-21 22:38 | 58.41994 | -95.52173 | 19975 ft | 188 kts | 249° |
| 2026-04-21 22:38 | 58.41435 | -95.54432 | 19974 ft | 188 kts | 249° |
| 2026-04-21 22:38 | 58.40877 | -95.56687 | 19974 ft | 188 kts | 249° |
| 2026-04-21 22:38 | 58.40325 | -95.58916 | 19973 ft | 188 kts | 249° |
| 2026-04-21 22:39 | 58.39766 | -95.61171 | 19973 ft | 188 kts | 249° |
| 2026-04-21 22:39 | 58.39206 | -95.63424 | 19972 ft | 188 kts | 249° |
| 2026-04-21 22:39 | 58.38650 | -95.65663 | 19971 ft | 188 kts | 248° |
| 2026-04-21 22:39 | 58.38089 | -95.67917 | 19971 ft | 188 kts | 248° |
| 2026-04-21 22:40 | 58.37535 | -95.70142 | 19970 ft | 188 kts | 248° |
| 2026-04-21 22:40 | 58.36974 | -95.72392 | 19970 ft | 188 kts | 248° |
| 2026-04-21 22:40 | 58.36409 | -95.74657 | 19969 ft | 188 kts | 248° |
| 2026-04-21 22:40 | 58.36303 | -95.75081 | 19969 ft | 188 kts | 248° |
| 2026-04-21 22:41 | 58.35745 | -95.77312 | 19968 ft | 188 kts | 248° |
| 2026-04-21 22:41 | 58.35183 | -95.79559 | 19967 ft | 188 kts | 248° |
| 2026-04-21 22:41 | 58.34618 | -95.81817 | 19966 ft | 188 kts | 248° |
| 2026-04-21 22:41 | 58.34061 | -95.84042 | 19965 ft | 188 kts | 248° |
| 2026-04-21 22:42 | 58.33497 | -95.86289 | 19965 ft | 188 kts | 248° |
| 2026-04-21 22:42 | 58.32931 | -95.88542 | 19964 ft | 188 kts | 248° |
| 2026-04-21 22:42 | 58.32373 | -95.90759 | 19963 ft | 188 kts | 248° |
| 2026-04-21 22:42 | 58.31806 | -95.93014 | 19962 ft | 188 kts | 248° |
| 2026-04-21 22:43 | 58.31247 | -95.95234 | 19961 ft | 188 kts | 248° |
| 2026-04-21 22:43 | 58.30680 | -95.97485 | 19960 ft | 188 kts | 248° |
| 2026-04-21 22:43 | 58.30112 | -95.99733 | 19960 ft | 188 kts | 248° |
| 2026-04-21 22:43 | 58.29551 | -96.01953 | 19959 ft | 188 kts | 248° |
| 2026-04-21 22:44 | 58.28985 | -96.04192 | 19959 ft | 188 kts | 248° |
| 2026-04-21 22:44 | 58.28416 | -96.06437 | 19958 ft | 188 kts | 248° |
| 2026-04-21 22:44 | 58.27853 | -96.08660 | 19957 ft | 188 kts | 248° |
| 2026-04-21 22:44 | 58.27284 | -96.10902 | 19957 ft | 188 kts | 248° |
| 2026-04-21 22:45 | 58.26722 | -96.13117 | 19956 ft | 188 kts | 248° |
| 2026-04-21 22:45 | 58.26147 | -96.15378 | 19955 ft | 188 kts | 248° |
| 2026-04-21 22:45 | 58.25584 | -96.17589 | 19955 ft | 188 kts | 248° |
| 2026-04-21 22:45 | 58.25013 | -96.19833 | 19954 ft | 188 kts | 248° |
| 2026-04-21 22:46 | 58.24443 | -96.22070 | 19953 ft | 188 kts | 248° |
| 2026-04-21 22:46 | 58.23879 | -96.24279 | 19952 ft | 188 kts | 248° |
| 2026-04-21 22:46 | 58.23310 | -96.26508 | 19951 ft | 188 kts | 248° |
| 2026-04-21 22:46 | 58.22736 | -96.28749 | 19950 ft | 188 kts | 248° |
| 2026-04-21 22:47 | 58.22169 | -96.30965 | 19949 ft | 188 kts | 248° |
| 2026-04-21 22:47 | 58.21595 | -96.33204 | 19948 ft | 188 kts | 248° |
| 2026-04-21 22:47 | 58.21021 | -96.35444 | 19947 ft | 188 kts | 248° |
| 2026-04-21 22:47 | 58.20454 | -96.37652 | 19946 ft | 188 kts | 248° |
| 2026-04-21 22:48 | 58.19877 | -96.39896 | 19945 ft | 188 kts | 248° |
| 2026-04-21 22:48 | 58.19309 | -96.42106 | 19944 ft | 188 kts | 248° |
| 2026-04-21 22:48 | 58.18733 | -96.44344 | 19943 ft | 188 kts | 248° |
| 2026-04-21 22:48 | 58.18156 | -96.46577 | 19941 ft | 188 kts | 248° |
| 2026-04-21 22:49 | 58.17588 | -96.48780 | 19940 ft | 188 kts | 248° |
| 2026-04-21 22:49 | 58.17010 | -96.51019 | 19939 ft | 188 kts | 248° |
| 2026-04-21 22:49 | 58.16441 | -96.53220 | 19939 ft | 188 kts | 248° |
| 2026-04-21 22:49 | 58.15865 | -96.55444 | 19938 ft | 188 kts | 248° |
| 2026-04-21 22:50 | 58.15287 | -96.57677 | 19938 ft | 188 kts | 248° |
| 2026-04-21 22:50 | 58.14716 | -96.59879 | 19938 ft | 188 kts | 248° |
| 2026-04-21 22:50 | 58.14137 | -96.62110 | 19938 ft | 188 kts | 248° |
| 2026-04-21 22:50 | 58.13563 | -96.64317 | 19938 ft | 188 kts | 248° |
| 2026-04-21 22:51 | 58.12978 | -96.66566 | 19938 ft | 188 kts | 247° |
| 2026-04-21 22:51 | 58.12396 | -96.68802 | 19938 ft | 188 kts | 247° |
| 2026-04-21 22:51 | 58.11822 | -96.71004 | 19938 ft | 188 kts | 247° |
| 2026-04-21 22:51 | 58.11240 | -96.73234 | 19938 ft | 188 kts | 247° |
| 2026-04-21 22:52 | 58.10665 | -96.75436 | 19939 ft | 188 kts | 247° |
| 2026-04-21 22:52 | 58.10083 | -96.77663 | 19938 ft | 188 kts | 247° |
| 2026-04-21 22:52 | 58.09502 | -96.79883 | 19937 ft | 188 kts | 247° |
| 2026-04-21 22:52 | 58.08926 | -96.82082 | 19937 ft | 188 kts | 247° |
| 2026-04-21 22:53 | 58.08343 | -96.84306 | 19936 ft | 189 kts | 247° |
| 2026-04-21 22:53 | 58.07760 | -96.86528 | 19935 ft | 189 kts | 247° |
| 2026-04-21 22:53 | 58.07182 | -96.88728 | 19934 ft | 189 kts | 247° |
| 2026-04-21 22:53 | 58.06597 | -96.90952 | 19933 ft | 189 kts | 247° |
| 2026-04-21 22:54 | 58.06012 | -96.93175 | 19932 ft | 189 kts | 247° |
| 2026-04-21 22:54 | 58.05433 | -96.95373 | 19931 ft | 189 kts | 247° |
| 2026-04-21 22:54 | 58.04848 | -96.97590 | 19930 ft | 189 kts | 247° |
| 2026-04-21 22:54 | 58.04268 | -96.99792 | 19929 ft | 189 kts | 247° |
| 2026-04-21 22:55 | 58.03681 | -97.02012 | 19929 ft | 189 kts | 247° |
| 2026-04-21 22:55 | 58.03094 | -97.04230 | 19928 ft | 189 kts | 247° |
| 2026-04-21 22:55 | 58.02515 | -97.06418 | 19928 ft | 189 kts | 247° |
| 2026-04-21 22:55 | 58.01925 | -97.08642 | 19928 ft | 189 kts | 247° |
| 2026-04-21 22:56 | 58.01338 | -97.10856 | 19927 ft | 189 kts | 247° |
| 2026-04-21 22:56 | 58.00756 | -97.13046 | 19927 ft | 189 kts | 247° |
| 2026-04-21 22:56 | 58.00168 | -97.15260 | 19927 ft | 189 kts | 247° |
| 2026-04-21 22:56 | 57.99583 | -97.17459 | 19926 ft | 189 kts | 247° |
| 2026-04-21 22:57 | 57.98992 | -97.19676 | 19926 ft | 189 kts | 247° |
| 2026-04-21 22:57 | 57.98401 | -97.21893 | 19926 ft | 189 kts | 247° |
| 2026-04-21 22:57 | 57.97818 | -97.24081 | 19925 ft | 189 kts | 247° |
| 2026-04-21 22:57 | 57.97225 | -97.26299 | 19925 ft | 189 kts | 247° |
| 2026-04-21 22:58 | 57.96642 | -97.28477 | 19925 ft | 189 kts | 247° |
| 2026-04-21 22:58 | 57.96051 | -97.30688 | 19925 ft | 189 kts | 247° |
| 2026-04-21 22:58 | 57.95456 | -97.32910 | 19925 ft | 189 kts | 247° |
| 2026-04-21 22:58 | 57.94869 | -97.35098 | 19925 ft | 189 kts | 247° |
| 2026-04-21 22:59 | 57.94283 | -97.37282 | 19924 ft | 189 kts | 247° |
| 2026-04-21 22:59 | 57.93687 | -97.39498 | 19924 ft | 189 kts | 247° |
| 2026-04-21 22:59 | 57.93093 | -97.41708 | 19924 ft | 189 kts | 247° |
| 2026-04-21 22:59 | 57.92503 | -97.43901 | 19924 ft | 189 kts | 247° |
| 2026-04-21 23:00 | 57.91907 | -97.46111 | 19923 ft | 189 kts | 247° |
| 2026-04-21 23:00 | 57.91323 | -97.48292 | 19923 ft | 189 kts | 248° |
| 2026-04-21 23:00 | 57.90724 | -97.50492 | 19922 ft | 189 kts | 247° |
| 2026-04-21 23:00 | 57.90133 | -97.52684 | 20007 ft | 184 kts | 247° |
| 2026-04-21 23:01 | 57.89547 | -97.54860 | 20035 ft | 184 kts | 247° |
| 2026-04-21 23:01 | 57.88967 | -97.56989 | 20036 ft | 185 kts | 248° |
| 2026-04-21 23:01 | 57.88379 | -97.59161 | 20035 ft | 186 kts | 247° |
| 2026-04-21 23:01 | 57.87796 | -97.61307 | 20035 ft | 187 kts | 247° |
| 2026-04-21 23:02 | 57.87199 | -97.63492 | 20034 ft | 187 kts | 247° |
| 2026-04-21 23:02 | 57.86609 | -97.65665 | 20033 ft | 187 kts | 246° |
| 2026-04-21 23:02 | 57.86018 | -97.67843 | 20033 ft | 188 kts | 246° |
| 2026-04-21 23:02 | 57.85423 | -97.70030 | 20033 ft | 188 kts | 246° |
| 2026-04-21 23:03 | 57.84835 | -97.72192 | 20032 ft | 188 kts | 246° |
| 2026-04-21 23:03 | 57.84236 | -97.74388 | 20032 ft | 188 kts | 246° |
| 2026-04-21 23:03 | 57.83639 | -97.76574 | 20032 ft | 188 kts | 246° |
| 2026-04-21 23:03 | 57.83049 | -97.78735 | 20033 ft | 188 kts | 246° |
| 2026-04-21 23:04 | 57.82446 | -97.80936 | 20033 ft | 187 kts | 246° |
| 2026-04-21 23:04 | 57.81853 | -97.83096 | 20033 ft | 186 kts | 246° |
| 2026-04-21 23:04 | 57.81269 | -97.85228 | 20034 ft | 186 kts | 246° |
| 2026-04-21 23:04 | 57.80674 | -97.87399 | 20035 ft | 187 kts | 246° |
| 2026-04-21 23:05 | 57.80083 | -97.89551 | 20035 ft | 187 kts | 246° |
| 2026-04-21 23:05 | 57.79483 | -97.91735 | 20036 ft | 188 kts | 246° |
| 2026-04-21 23:05 | 57.78890 | -97.93888 | 20036 ft | 188 kts | 246° |
| 2026-04-21 23:05 | 57.78289 | -97.96069 | 20036 ft | 188 kts | 246° |
| 2026-04-21 23:06 | 57.77694 | -97.98229 | 20037 ft | 188 kts | 246° |
| 2026-04-21 23:06 | 57.77092 | -98.00409 | 20037 ft | 188 kts | 246° |
| 2026-04-21 23:06 | 57.76490 | -98.02589 | 20037 ft | 188 kts | 246° |
| 2026-04-21 23:06 | 57.75887 | -98.04771 | 20037 ft | 188 kts | 246° |
| 2026-04-21 23:07 | 57.75289 | -98.06931 | 20036 ft | 188 kts | 246° |
| 2026-04-21 23:07 | 57.74692 | -98.09087 | 20036 ft | 188 kts | 246° |
| 2026-04-21 23:07 | 57.74090 | -98.11258 | 20036 ft | 188 kts | 246° |
| 2026-04-21 23:07 | 57.73487 | -98.13430 | 20036 ft | 188 kts | 246° |
| 2026-04-21 23:08 | 57.72890 | -98.15580 | 20037 ft | 188 kts | 246° |
| 2026-04-21 23:08 | 57.72284 | -98.17757 | 20037 ft | 188 kts | 246° |
| 2026-04-21 23:08 | 57.71677 | -98.19938 | 20037 ft | 188 kts | 246° |
| 2026-04-21 23:08 | 57.71076 | -98.22097 | 20037 ft | 188 kts | 246° |
| 2026-04-21 23:09 | 57.70468 | -98.24275 | 20037 ft | 188 kts | 246° |
| 2026-04-21 23:09 | 57.69871 | -98.26414 | 20038 ft | 188 kts | 246° |
| 2026-04-21 23:09 | 57.69264 | -98.28587 | 20039 ft | 188 kts | 246° |
| 2026-04-21 23:09 | 57.68662 | -98.30740 | 20040 ft | 188 kts | 246° |
| 2026-04-21 23:10 | 57.68053 | -98.32916 | 20041 ft | 188 kts | 246° |
| 2026-04-21 23:10 | 57.67445 | -98.35088 | 20042 ft | 188 kts | 246° |
| 2026-04-21 23:10 | 57.66843 | -98.37231 | 20043 ft | 188 kts | 246° |
| 2026-04-21 23:10 | 57.66239 | -98.39383 | 20044 ft | 188 kts | 246° |
| 2026-04-21 23:11 | 57.65630 | -98.41553 | 20044 ft | 188 kts | 246° |
| 2026-04-21 23:11 | 57.65019 | -98.43726 | 20045 ft | 188 kts | 246° |
| 2026-04-21 23:11 | 57.64415 | -98.45870 | 20046 ft | 188 kts | 246° |
| 2026-04-21 23:11 | 57.63810 | -98.48019 | 20046 ft | 188 kts | 246° |
| 2026-04-21 23:12 | 57.63197 | -98.50191 | 20047 ft | 188 kts | 246° |
| 2026-04-21 23:12 | 57.62593 | -98.52331 | 20047 ft | 188 kts | 246° |
| 2026-04-21 23:12 | 57.61980 | -98.54500 | 20046 ft | 188 kts | 246° |
| 2026-04-21 23:12 | 57.61366 | -98.56670 | 20045 ft | 188 kts | 246° |
| 2026-04-21 23:13 | 57.60760 | -98.58809 | 20045 ft | 188 kts | 246° |
| 2026-04-21 23:13 | 57.60147 | -98.60975 | 20044 ft | 188 kts | 246° |
| 2026-04-21 23:13 | 57.59542 | -98.63106 | 20044 ft | 188 kts | 246° |
| 2026-04-21 23:13 | 57.58927 | -98.65275 | 20043 ft | 188 kts | 245° |
| 2026-04-21 23:14 | 57.58318 | -98.67416 | 20042 ft | 188 kts | 245° |
| 2026-04-21 23:14 | 57.57701 | -98.69587 | 20042 ft | 189 kts | 245° |
| 2026-04-21 23:14 | 57.57092 | -98.71726 | 20041 ft | 189 kts | 245° |
| 2026-04-21 23:14 | 57.56473 | -98.73897 | 20040 ft | 189 kts | 245° |
| 2026-04-21 23:15 | 57.55856 | -98.76060 | 20040 ft | 189 kts | 245° |
| 2026-04-21 23:15 | 57.55242 | -98.78213 | 20040 ft | 189 kts | 245° |
| 2026-04-21 23:15 | 57.54630 | -98.80353 | 20039 ft | 189 kts | 245° |
| 2026-04-21 23:15 | 57.54011 | -98.82517 | 20039 ft | 189 kts | 245° |
| 2026-04-21 23:16 | 57.53403 | -98.84642 | 20039 ft | 189 kts | 245° |
| 2026-04-21 23:16 | 57.52781 | -98.86812 | 20039 ft | 189 kts | 245° |
| 2026-04-21 23:16 | 57.52168 | -98.88950 | 20039 ft | 189 kts | 245° |
| 2026-04-21 23:16 | 57.51554 | -98.91088 | 20039 ft | 189 kts | 245° |
| 2026-04-21 23:17 | 57.50935 | -98.93243 | 20039 ft | 189 kts | 245° |
| 2026-04-21 23:17 | 57.50314 | -98.95403 | 20038 ft | 189 kts | 245° |
| 2026-04-21 23:17 | 57.49699 | -98.97543 | 20038 ft | 189 kts | 245° |
| 2026-04-21 23:17 | 57.49078 | -98.99709 | 20037 ft | 188 kts | 249° |
| 2026-04-21 23:18 | 57.48914 | -99.00432 | 20036 ft | 187 kts | 254° |
| 2026-04-21 23:18 | 57.48482 | -99.02728 | 20038 ft | 187 kts | 255° |
| 2026-04-21 23:18 | 57.48075 | -99.04994 | 20038 ft | 187 kts | 256° |
| 2026-04-21 23:18 | 57.47666 | -99.07297 | 20038 ft | 187 kts | 256° |
| 2026-04-21 23:19 | 57.47261 | -99.09586 | 20038 ft | 187 kts | 256° |
| 2026-04-21 23:19 | 57.46860 | -99.11860 | 20038 ft | 187 kts | 256° |
| 2026-04-21 23:19 | 57.46454 | -99.14158 | 20037 ft | 187 kts | 256° |
| 2026-04-21 23:19 | 57.46054 | -99.16426 | 20037 ft | 187 kts | 256° |
| 2026-04-21 23:20 | 57.45648 | -99.18720 | 20037 ft | 187 kts | 256° |
| 2026-04-21 23:20 | 57.45246 | -99.20991 | 20037 ft | 187 kts | 256° |
| 2026-04-21 23:20 | 57.44839 | -99.23288 | 20037 ft | 187 kts | 256° |
| 2026-04-21 23:20 | 57.44432 | -99.25584 | 20037 ft | 187 kts | 256° |
| 2026-04-21 23:21 | 57.44030 | -99.27847 | 20037 ft | 187 kts | 256° |
| 2026-04-21 23:21 | 57.43619 | -99.30155 | 20037 ft | 187 kts | 256° |
| 2026-04-21 23:21 | 57.43218 | -99.32412 | 20037 ft | 187 kts | 256° |
| 2026-04-21 23:21 | 57.42808 | -99.34712 | 20037 ft | 187 kts | 256° |
| 2026-04-21 23:22 | 57.42399 | -99.37003 | 20037 ft | 187 kts | 256° |
| 2026-04-21 23:22 | 57.41996 | -99.39262 | 20038 ft | 187 kts | 256° |
| 2026-04-21 23:22 | 57.41586 | -99.41554 | 20038 ft | 187 kts | 256° |
| 2026-04-21 23:22 | 57.41179 | -99.43822 | 20038 ft | 187 kts | 256° |
| 2026-04-21 23:23 | 57.40767 | -99.46120 | 20038 ft | 187 kts | 256° |
| 2026-04-21 23:23 | 57.40360 | -99.48386 | 20038 ft | 187 kts | 256° |
| 2026-04-21 23:23 | 57.39948 | -99.50680 | 20038 ft | 187 kts | 256° |
| 2026-04-21 23:23 | 57.39540 | -99.52947 | 20038 ft | 187 kts | 256° |
| 2026-04-21 23:24 | 57.39126 | -99.55243 | 20038 ft | 187 kts | 256° |
| 2026-04-21 23:24 | 57.38718 | -99.57506 | 20038 ft | 187 kts | 256° |
| 2026-04-21 23:24 | 57.38304 | -99.59795 | 20037 ft | 187 kts | 256° |
| 2026-04-21 23:24 | 57.37896 | -99.62050 | 20037 ft | 187 kts | 256° |
| 2026-04-21 23:25 | 57.37481 | -99.64341 | 20037 ft | 187 kts | 256° |
| 2026-04-21 23:25 | 57.37061 | -99.66656 | 20036 ft | 187 kts | 255° |
| 2026-04-21 23:25 | 57.36651 | -99.68914 | 20036 ft | 187 kts | 255° |
| 2026-04-21 23:25 | 57.36235 | -99.71204 | 20036 ft | 187 kts | 255° |
| 2026-04-21 23:26 | 57.35823 | -99.73470 | 20035 ft | 187 kts | 255° |
| 2026-04-21 23:26 | 57.35405 | -99.75762 | 20035 ft | 187 kts | 255° |
| 2026-04-21 23:26 | 57.34993 | -99.78023 | 20035 ft | 187 kts | 255° |
| 2026-04-21 23:26 | 57.34575 | -99.80309 | 20035 ft | 187 kts | 255° |
| 2026-04-21 23:27 | 57.34158 | -99.82590 | 20034 ft | 187 kts | 255° |
| 2026-04-21 23:27 | 57.33744 | -99.84850 | 20034 ft | 187 kts | 255° |
| 2026-04-21 23:27 | 57.33326 | -99.87135 | 20034 ft | 187 kts | 255° |
| 2026-04-21 23:27 | 57.32907 | -99.89417 | 20034 ft | 187 kts | 255° |
| 2026-04-21 23:28 | 57.32492 | -99.91672 | 20033 ft | 187 kts | 255° |
| 2026-04-21 23:28 | 57.32072 | -99.93957 | 20033 ft | 187 kts | 255° |
| 2026-04-21 23:28 | 57.31654 | -99.96222 | 20033 ft | 187 kts | 255° |
| 2026-04-21 23:28 | 57.31233 | -99.98510 | 20033 ft | 187 kts | 255° |
| 2026-04-21 23:29 | 57.30815 | -100.00771 | 20032 ft | 187 kts | 255° |
| 2026-04-21 23:29 | 57.30391 | -100.03062 | 20032 ft | 187 kts | 255° |
| 2026-04-21 23:29 | 57.29975 | -100.05308 | 20033 ft | 187 kts | 255° |
| 2026-04-21 23:29 | 57.29551 | -100.07602 | 20033 ft | 187 kts | 255° |
| 2026-04-21 23:30 | 57.29133 | -100.09851 | 20033 ft | 187 kts | 255° |
| 2026-04-21 23:30 | 57.28709 | -100.12134 | 20033 ft | 187 kts | 255° |
| 2026-04-21 23:30 | 57.28285 | -100.14415 | 20033 ft | 187 kts | 255° |
| 2026-04-21 23:30 | 57.27866 | -100.16666 | 20033 ft | 187 kts | 255° |
| 2026-04-21 23:31 | 57.27441 | -100.18946 | 20034 ft | 187 kts | 255° |
| 2026-04-21 23:31 | 57.27021 | -100.21194 | 20034 ft | 187 kts | 255° |
| 2026-04-21 23:31 | 57.26594 | -100.23479 | 20034 ft | 187 kts | 255° |
| 2026-04-21 23:31 | 57.26169 | -100.25748 | 20034 ft | 187 kts | 255° |
| 2026-04-21 23:32 | 57.25747 | -100.28001 | 20033 ft | 184 kts | 256° |
| 2026-04-21 23:32 | 57.25327 | -100.30229 | 20031 ft | 182 kts | 255° |
| 2026-04-21 23:32 | 57.24918 | -100.32406 | 20031 ft | 180 kts | 255° |
| 2026-04-21 23:32 | 57.24504 | -100.34602 | 20031 ft | 179 kts | 255° |
| 2026-04-21 23:33 | 57.24099 | -100.36754 | 20031 ft | 178 kts | 255° |
| 2026-04-21 23:33 | 57.23692 | -100.38914 | 20030 ft | 178 kts | 255° |
| 2026-04-21 23:33 | 57.23284 | -100.41074 | 20030 ft | 178 kts | 255° |
| 2026-04-21 23:33 | 57.22881 | -100.43211 | 20029 ft | 177 kts | 255° |
| 2026-04-21 23:34 | 57.22474 | -100.45364 | 20029 ft | 177 kts | 255° |
| 2026-04-21 23:34 | 57.22071 | -100.47491 | 20029 ft | 177 kts | 255° |
| 2026-04-21 23:34 | 57.21663 | -100.49648 | 20028 ft | 177 kts | 255° |
| 2026-04-21 23:34 | 57.21260 | -100.51771 | 20028 ft | 177 kts | 255° |
| 2026-04-21 23:35 | 57.20851 | -100.53925 | 20028 ft | 177 kts | 255° |
| 2026-04-21 23:35 | 57.20446 | -100.56055 | 20028 ft | 177 kts | 255° |
| 2026-04-21 23:35 | 57.20037 | -100.58203 | 20028 ft | 177 kts | 255° |
| 2026-04-21 23:35 | 57.19633 | -100.60323 | 20028 ft | 177 kts | 255° |
| 2026-04-21 23:36 | 57.19224 | -100.62468 | 20028 ft | 177 kts | 255° |
| 2026-04-21 23:36 | 57.18818 | -100.64600 | 20029 ft | 178 kts | 255° |
| 2026-04-21 23:36 | 57.18404 | -100.66774 | 20030 ft | 181 kts | 254° |
| 2026-04-21 23:36 | 57.17982 | -100.68983 | 20029 ft | 183 kts | 254° |
| 2026-04-21 23:37 | 57.17555 | -100.71213 | 20029 ft | 185 kts | 254° |
| 2026-04-21 23:37 | 57.17129 | -100.73434 | 20029 ft | 186 kts | 254° |
| 2026-04-21 23:37 | 57.16700 | -100.75669 | 20029 ft | 186 kts | 254° |
| 2026-04-21 23:37 | 57.16264 | -100.77937 | 20029 ft | 187 kts | 254° |
| 2026-04-21 23:38 | 57.15832 | -100.80180 | 20029 ft | 187 kts | 254° |
| 2026-04-21 23:38 | 57.15397 | -100.82439 | 20030 ft | 187 kts | 254° |
| 2026-04-21 23:38 | 57.14961 | -100.84699 | 20030 ft | 187 kts | 254° |
| 2026-04-21 23:38 | 57.14525 | -100.86952 | 20031 ft | 188 kts | 254° |
| 2026-04-21 23:39 | 57.14088 | -100.89211 | 20031 ft | 188 kts | 254° |
| 2026-04-21 23:39 | 57.13649 | -100.91481 | 20031 ft | 188 kts | 254° |
| 2026-04-21 23:39 | 57.13213 | -100.93729 | 20031 ft | 188 kts | 254° |
| 2026-04-21 23:39 | 57.12777 | -100.95976 | 20031 ft | 188 kts | 254° |
| 2026-04-21 23:40 | 57.12336 | -100.98246 | 20032 ft | 188 kts | 254° |
| 2026-04-21 23:40 | 57.11899 | -101.00495 | 20032 ft | 188 kts | 254° |
| 2026-04-21 23:40 | 57.11456 | -101.02772 | 20031 ft | 188 kts | 254° |
| 2026-04-21 23:40 | 57.11015 | -101.05028 | 20031 ft | 188 kts | 254° |
| 2026-04-21 23:41 | 57.10578 | -101.07265 | 20031 ft | 188 kts | 254° |
| 2026-04-21 23:41 | 57.10133 | -101.09544 | 20031 ft | 188 kts | 254° |
| 2026-04-21 23:41 | 57.09695 | -101.11784 | 20031 ft | 188 kts | 254° |
| 2026-04-21 23:41 | 57.09250 | -101.14054 | 20031 ft | 188 kts | 254° |
| 2026-04-21 23:42 | 57.08813 | -101.16283 | 20031 ft | 188 kts | 254° |
| 2026-04-21 23:42 | 57.08367 | -101.18552 | 20031 ft | 188 kts | 254° |
| 2026-04-21 23:42 | 57.07925 | -101.20802 | 20031 ft | 188 kts | 254° |
| 2026-04-21 23:42 | 57.07478 | -101.23074 | 20030 ft | 188 kts | 254° |
| 2026-04-21 23:43 | 57.07037 | -101.25314 | 20030 ft | 188 kts | 254° |
| 2026-04-21 23:43 | 57.06593 | -101.27567 | 20030 ft | 188 kts | 254° |
| 2026-04-21 23:43 | 57.06150 | -101.29810 | 20029 ft | 188 kts | 254° |
| 2026-04-21 23:43 | 57.05700 | -101.32086 | 20029 ft | 188 kts | 254° |
| 2026-04-21 23:44 | 57.05258 | -101.34319 | 20028 ft | 188 kts | 254° |
| 2026-04-21 23:44 | 57.04809 | -101.36582 | 20028 ft | 188 kts | 254° |
| 2026-04-21 23:44 | 57.04366 | -101.38814 | 20027 ft | 188 kts | 254° |
| 2026-04-21 23:44 | 57.03916 | -101.41080 | 20027 ft | 188 kts | 254° |
| 2026-04-21 23:45 | 57.03473 | -101.43313 | 20026 ft | 188 kts | 254° |
| 2026-04-21 23:45 | 57.02876 | -101.46308 | 20025 ft | 188 kts | 254° |
| 2026-04-21 23:45 | 57.02424 | -101.48576 | 20025 ft | 188 kts | 254° |
| 2026-04-21 23:46 | 57.01978 | -101.50814 | 20024 ft | 188 kts | 254° |
| 2026-04-21 23:46 | 57.01526 | -101.53073 | 20024 ft | 188 kts | 254° |
| 2026-04-21 23:46 | 57.01079 | -101.55309 | 20024 ft | 188 kts | 254° |
| 2026-04-21 23:46 | 57.00626 | -101.57570 | 20024 ft | 188 kts | 254° |
| 2026-04-21 23:47 | 57.00179 | -101.59800 | 20024 ft | 188 kts | 254° |
| 2026-04-21 23:47 | 56.99730 | -101.62037 | 20024 ft | 188 kts | 254° |
| 2026-04-21 23:47 | 56.99277 | -101.64291 | 20025 ft | 188 kts | 254° |
| 2026-04-21 23:47 | 56.98822 | -101.66554 | 20025 ft | 188 kts | 253° |
| 2026-04-21 23:48 | 56.98370 | -101.68797 | 20025 ft | 188 kts | 253° |
| 2026-04-21 23:48 | 56.97918 | -101.71036 | 20025 ft | 188 kts | 253° |
| 2026-04-21 23:48 | 56.97463 | -101.73295 | 20025 ft | 188 kts | 253° |
| 2026-04-21 23:48 | 56.97012 | -101.75524 | 20025 ft | 188 kts | 253° |
| 2026-04-21 23:49 | 56.96555 | -101.77783 | 20026 ft | 188 kts | 253° |
| 2026-04-21 23:49 | 56.96103 | -101.80013 | 20026 ft | 188 kts | 253° |
| 2026-04-21 23:49 | 56.95645 | -101.82274 | 20026 ft | 188 kts | 253° |
| 2026-04-21 23:49 | 56.95190 | -101.84512 | 20027 ft | 188 kts | 253° |
| 2026-04-21 23:50 | 56.94739 | -101.86735 | 20027 ft | 188 kts | 253° |
| 2026-04-21 23:50 | 56.94280 | -101.88989 | 20027 ft | 188 kts | 253° |
| 2026-04-21 23:50 | 56.93827 | -101.91213 | 20028 ft | 188 kts | 253° |
| 2026-04-21 23:50 | 56.93365 | -101.93478 | 20028 ft | 188 kts | 253° |
| 2026-04-21 23:51 | 56.92910 | -101.95705 | 20028 ft | 188 kts | 253° |
| 2026-04-21 23:51 | 56.92450 | -101.97957 | 20028 ft | 188 kts | 253° |
| 2026-04-21 23:51 | 56.91995 | -102.00184 | 20029 ft | 188 kts | 253° |
| 2026-04-21 23:51 | 56.91537 | -102.02415 | 20029 ft | 188 kts | 253° |
| 2026-04-21 23:52 | 56.91077 | -102.04662 | 20029 ft | 188 kts | 253° |
| 2026-04-21 23:52 | 56.90615 | -102.06913 | 20029 ft | 188 kts | 253° |
| 2026-04-21 23:52 | 56.90157 | -102.09139 | 20029 ft | 188 kts | 253° |
| 2026-04-21 23:52 | 56.89698 | -102.11372 | 20026 ft | 188 kts | 253° |
| 2026-04-21 23:53 | 56.89231 | -102.13637 | 20025 ft | 188 kts | 253° |
| 2026-04-21 23:53 | 56.88768 | -102.15881 | 20025 ft | 188 kts | 253° |
| 2026-04-21 23:53 | 56.88307 | -102.18115 | 20025 ft | 188 kts | 253° |
| 2026-04-21 23:53 | 56.87848 | -102.20334 | 20025 ft | 188 kts | 253° |
| 2026-04-21 23:54 | 56.87387 | -102.22564 | 20025 ft | 187 kts | 253° |
| 2026-04-21 23:54 | 56.86929 | -102.24776 | 20025 ft | 187 kts | 253° |
| 2026-04-21 23:54 | 56.86464 | -102.27019 | 20025 ft | 187 kts | 253° |
| 2026-04-21 23:54 | 56.86006 | -102.29227 | 20025 ft | 187 kts | 253° |
| 2026-04-21 23:55 | 56.85541 | -102.31462 | 20025 ft | 187 kts | 253° |
| 2026-04-21 23:55 | 56.85081 | -102.33671 | 20025 ft | 187 kts | 253° |
| 2026-04-21 23:55 | 56.84616 | -102.35905 | 20025 ft | 187 kts | 253° |
| 2026-04-21 23:55 | 56.84156 | -102.38113 | 20025 ft | 187 kts | 253° |
| 2026-04-21 23:56 | 56.83696 | -102.40316 | 20025 ft | 187 kts | 253° |
| 2026-04-21 23:56 | 56.83230 | -102.42546 | 20025 ft | 187 kts | 253° |
| 2026-04-21 23:56 | 56.82767 | -102.44759 | 20025 ft | 187 kts | 253° |
| 2026-04-21 23:56 | 56.82300 | -102.46991 | 20026 ft | 187 kts | 253° |
| 2026-04-21 23:57 | 56.81836 | -102.49205 | 20026 ft | 187 kts | 253° |
| 2026-04-21 23:57 | 56.81368 | -102.51435 | 20026 ft | 187 kts | 253° |
| 2026-04-21 23:57 | 56.80905 | -102.53637 | 20026 ft | 187 kts | 253° |
| 2026-04-21 23:57 | 56.80441 | -102.55845 | 20026 ft | 187 kts | 253° |
| 2026-04-21 23:58 | 56.79970 | -102.58078 | 20026 ft | 187 kts | 253° |